sensor_id;sensor_type;location;lat;lon;timestamp;P1;durP1;ratioP1;P2;durP2;ratioP2
33814;SDS011;20121;51.910;8.406;2023-10-31T00:01:47;5.47;;;2.93;;
33814;SDS011;20121;51.910;8.406;2023-10-31T00:04:14;5.05;;;2.53;;
33814;SDS011;20121;51.910;8.406;2023-10-31T00:06:40;5.05;;;2.85;;
33814;SDS011;20121;51.910;8.406;2023-10-31T00:09:06;5.90;;;3.20;;
33814;SDS011;20121;51.910;8.406;2023-10-31T00:11:31;5.03;;;2.77;;
33814;SDS011;20121;51.910;8.406;2023-10-31T00:13:57;5.47;;;2.90;;
33814;SDS011;20121;51.910;8.406;2023-10-31T00:16:22;4.30;;;2.50;;
33814;SDS011;20121;51.910;8.406;2023-10-31T00:18:48;3.97;;;2.33;;
33814;SDS011;20121;51.910;8.406;2023-10-31T00:21:14;4.80;;;2.63;;
33814;SDS011;20121;51.910;8.406;2023-10-31T00:23:46;3.57;;;2.23;;
33814;SDS011;20121;51.910;8.406;2023-10-31T00:26:12;4.07;;;2.17;;
33814;SDS011;20121;51.910;8.406;2023-10-31T00:28:38;5.03;;;2.83;;
33814;SDS011;20121;51.910;8.406;2023-10-31T00:31:03;3.83;;;2.17;;
33814;SDS011;20121;51.910;8.406;2023-10-31T00:33:31;5.28;;;2.92;;
33814;SDS011;20121;51.910;8.406;2023-10-31T00:35:57;4.40;;;2.50;;
33814;SDS011;20121;51.910;8.406;2023-10-31T00:38:22;4.07;;;2.23;;
33814;SDS011;20121;51.910;8.406;2023-10-31T00:40:48;4.53;;;2.80;;
33814;SDS011;20121;51.910;8.406;2023-10-31T00:43:14;3.83;;;2.20;;
33814;SDS011;20121;51.910;8.406;2023-10-31T00:45:39;2.87;;;1.93;;
33814;SDS011;20121;51.910;8.406;2023-10-31T00:48:05;3.37;;;2.50;;
33814;SDS011;20121;51.910;8.406;2023-10-31T00:50:30;5.07;;;2.53;;
33814;SDS011;20121;51.910;8.406;2023-10-31T00:52:56;11.57;;;3.90;;
33814;SDS011;20121;51.910;8.406;2023-10-31T00:55:22;4.07;;;2.33;;
33814;SDS011;20121;51.910;8.406;2023-10-31T00:57:47;5.00;;;2.80;;
33814;SDS011;20121;51.910;8.406;2023-10-31T01:00:13;4.57;;;2.60;;
33814;SDS011;20121;51.910;8.406;2023-10-31T01:02:39;5.30;;;3.25;;
33814;SDS011;20121;51.910;8.406;2023-10-31T01:05:04;4.47;;;2.77;;
33814;SDS011;20121;51.910;8.406;2023-10-31T01:07:30;3.67;;;2.20;;
33814;SDS011;20121;51.910;8.406;2023-10-31T01:09:56;4.13;;;2.53;;
33814;SDS011;20121;51.910;8.406;2023-10-31T01:12:21;5.40;;;2.33;;
33814;SDS011;20121;51.910;8.406;2023-10-31T01:14:47;4.77;;;2.53;;
33814;SDS011;20121;51.910;8.406;2023-10-31T01:17:13;4.87;;;2.77;;
33814;SDS011;20121;51.910;8.406;2023-10-31T01:19:38;4.37;;;1.87;;
33814;SDS011;20121;51.910;8.406;2023-10-31T01:22:04;4.13;;;2.30;;
33814;SDS011;20121;51.910;8.406;2023-10-31T01:24:29;3.77;;;2.30;;
33814;SDS011;20121;51.910;8.406;2023-10-31T01:26:55;4.97;;;2.73;;
33814;SDS011;20121;51.910;8.406;2023-10-31T01:29:21;3.00;;;1.80;;
33814;SDS011;20121;51.910;8.406;2023-10-31T01:31:47;3.40;;;2.60;;
33814;SDS011;20121;51.910;8.406;2023-10-31T01:34:12;4.83;;;2.57;;
33814;SDS011;20121;51.910;8.406;2023-10-31T01:36:38;4.80;;;2.03;;
33814;SDS011;20121;51.910;8.406;2023-10-31T01:39:03;4.97;;;2.87;;
33814;SDS011;20121;51.910;8.406;2023-10-31T01:41:29;4.63;;;2.80;;
33814;SDS011;20121;51.910;8.406;2023-10-31T01:43:55;5.33;;;3.40;;
33814;SDS011;20121;51.910;8.406;2023-10-31T01:46:20;5.00;;;2.90;;
33814;SDS011;20121;51.910;8.406;2023-10-31T01:48:46;6.47;;;3.63;;
33814;SDS011;20121;51.910;8.406;2023-10-31T01:51:12;5.68;;;3.17;;
33814;SDS011;20121;51.910;8.406;2023-10-31T01:53:38;4.70;;;2.92;;
33814;SDS011;20121;51.910;8.406;2023-10-31T01:56:04;6.95;;;3.75;;
33814;SDS011;20121;51.910;8.406;2023-10-31T01:58:33;4.90;;;2.95;;
33814;SDS011;20121;51.910;8.406;2023-10-31T02:01:00;6.03;;;3.67;;
33814;SDS011;20121;51.910;8.406;2023-10-31T02:03:27;4.57;;;2.85;;
33814;SDS011;20121;51.910;8.406;2023-10-31T02:05:53;7.60;;;3.20;;
33814;SDS011;20121;51.910;8.406;2023-10-31T02:08:19;5.32;;;3.05;;
33814;SDS011;20121;51.910;8.406;2023-10-31T02:10:45;4.90;;;3.87;;
33814;SDS011;20121;51.910;8.406;2023-10-31T02:13:11;9.07;;;4.17;;
33814;SDS011;20121;51.910;8.406;2023-10-31T02:15:40;4.72;;;3.40;;
33814;SDS011;20121;51.910;8.406;2023-10-31T02:18:07;5.65;;;3.50;;
33814;SDS011;20121;51.910;8.406;2023-10-31T02:20:33;3.95;;;2.40;;
33814;SDS011;20121;51.910;8.406;2023-10-31T02:22:59;6.88;;;3.20;;
33814;SDS011;20121;51.910;8.406;2023-10-31T02:25:25;3.67;;;2.00;;
33814;SDS011;20121;51.910;8.406;2023-10-31T02:27:50;4.50;;;2.87;;
33814;SDS011;20121;51.910;8.406;2023-10-31T02:30:16;4.70;;;2.70;;
33814;SDS011;20121;51.910;8.406;2023-10-31T02:32:42;6.03;;;2.37;;
33814;SDS011;20121;51.910;8.406;2023-10-31T02:35:07;5.03;;;2.60;;
33814;SDS011;20121;51.910;8.406;2023-10-31T02:37:33;2.53;;;1.73;;
33814;SDS011;20121;51.910;8.406;2023-10-31T02:40:00;4.78;;;2.80;;
33814;SDS011;20121;51.910;8.406;2023-10-31T02:42:26;3.50;;;2.05;;
33814;SDS011;20121;51.910;8.406;2023-10-31T02:44:52;3.88;;;2.40;;
33814;SDS011;20121;51.910;8.406;2023-10-31T02:47:17;3.77;;;2.33;;
33814;SDS011;20121;51.910;8.406;2023-10-31T02:49:43;5.07;;;2.47;;
33814;SDS011;20121;51.910;8.406;2023-10-31T02:52:09;4.10;;;2.30;;
33814;SDS011;20121;51.910;8.406;2023-10-31T02:54:34;5.17;;;2.77;;
33814;SDS011;20121;51.910;8.406;2023-10-31T02:57:00;4.97;;;2.37;;
33814;SDS011;20121;51.910;8.406;2023-10-31T02:59:26;5.05;;;2.95;;
33814;SDS011;20121;51.910;8.406;2023-10-31T03:01:52;4.13;;;2.40;;
33814;SDS011;20121;51.910;8.406;2023-10-31T03:04:18;4.60;;;2.22;;
33814;SDS011;20121;51.910;8.406;2023-10-31T03:06:44;5.60;;;2.88;;
33814;SDS011;20121;51.910;8.406;2023-10-31T03:09:09;4.37;;;2.60;;
33814;SDS011;20121;51.910;8.406;2023-10-31T03:11:35;3.67;;;1.90;;
33814;SDS011;20121;51.910;8.406;2023-10-31T03:14:01;5.30;;;2.80;;
33814;SDS011;20121;51.910;8.406;2023-10-31T03:16:27;3.43;;;1.93;;
33814;SDS011;20121;51.910;8.406;2023-10-31T03:18:52;4.10;;;2.30;;
33814;SDS011;20121;51.910;8.406;2023-10-31T03:21:18;3.80;;;2.10;;
33814;SDS011;20121;51.910;8.406;2023-10-31T03:23:47;5.87;;;3.27;;
33814;SDS011;20121;51.910;8.406;2023-10-31T03:26:14;4.38;;;2.55;;
33814;SDS011;20121;51.910;8.406;2023-10-31T03:28:40;3.75;;;2.22;;
33814;SDS011;20121;51.910;8.406;2023-10-31T03:31:08;3.38;;;1.92;;
33814;SDS011;20121;51.910;8.406;2023-10-31T03:33:34;3.78;;;1.90;;
33814;SDS011;20121;51.910;8.406;2023-10-31T03:35:59;4.90;;;2.73;;
33814;SDS011;20121;51.910;8.406;2023-10-31T03:38:25;4.70;;;2.57;;
33814;SDS011;20121;51.910;8.406;2023-10-31T03:40:51;3.90;;;2.37;;
33814;SDS011;20121;51.910;8.406;2023-10-31T03:43:16;5.33;;;2.70;;
33814;SDS011;20121;51.910;8.406;2023-10-31T03:45:42;5.43;;;2.80;;
33814;SDS011;20121;51.910;8.406;2023-10-31T03:48:08;7.10;;;1.73;;
33814;SDS011;20121;51.910;8.406;2023-10-31T03:50:33;6.23;;;3.13;;
33814;SDS011;20121;51.910;8.406;2023-10-31T03:52:59;4.57;;;2.47;;
33814;SDS011;20121;51.910;8.406;2023-10-31T03:55:25;2.80;;;1.60;;
33814;SDS011;20121;51.910;8.406;2023-10-31T03:57:50;3.77;;;2.30;;
33814;SDS011;20121;51.910;8.406;2023-10-31T04:00:16;3.60;;;2.27;;
33814;SDS011;20121;51.910;8.406;2023-10-31T04:02:42;4.17;;;2.37;;
33814;SDS011;20121;51.910;8.406;2023-10-31T04:05:08;6.10;;;2.57;;
33814;SDS011;20121;51.910;8.406;2023-10-31T04:07:33;6.13;;;2.93;;
33814;SDS011;20121;51.910;8.406;2023-10-31T04:09:59;3.13;;;1.90;;
33814;SDS011;20121;51.910;8.406;2023-10-31T04:12:25;3.53;;;1.80;;
33814;SDS011;20121;51.910;8.406;2023-10-31T04:14:50;4.20;;;2.40;;
33814;SDS011;20121;51.910;8.406;2023-10-31T04:17:16;3.77;;;2.17;;
33814;SDS011;20121;51.910;8.406;2023-10-31T04:19:41;4.33;;;2.40;;
33814;SDS011;20121;51.910;8.406;2023-10-31T04:22:07;5.00;;;2.90;;
33814;SDS011;20121;51.910;8.406;2023-10-31T04:24:32;3.97;;;2.30;;
33814;SDS011;20121;51.910;8.406;2023-10-31T04:26:58;6.40;;;3.80;;
33814;SDS011;20121;51.910;8.406;2023-10-31T04:29:24;3.75;;;2.13;;
33814;SDS011;20121;51.910;8.406;2023-10-31T04:31:50;3.33;;;2.00;;
33814;SDS011;20121;51.910;8.406;2023-10-31T04:34:15;4.07;;;2.87;;
33814;SDS011;20121;51.910;8.406;2023-10-31T04:36:41;4.13;;;2.40;;
33814;SDS011;20121;51.910;8.406;2023-10-31T04:39:06;3.87;;;2.27;;
33814;SDS011;20121;51.910;8.406;2023-10-31T04:41:34;3.22;;;2.00;;
33814;SDS011;20121;51.910;8.406;2023-10-31T04:44:00;5.33;;;3.00;;
33814;SDS011;20121;51.910;8.406;2023-10-31T04:46:26;4.07;;;2.40;;
33814;SDS011;20121;51.910;8.406;2023-10-31T04:48:54;6.93;;;3.60;;
33814;SDS011;20121;51.910;8.406;2023-10-31T04:51:20;5.63;;;2.80;;
33814;SDS011;20121;51.910;8.406;2023-10-31T04:53:45;5.50;;;3.07;;
33814;SDS011;20121;51.910;8.406;2023-10-31T04:56:12;4.27;;;2.93;;
33814;SDS011;20121;51.910;8.406;2023-10-31T04:58:39;5.28;;;2.90;;
33814;SDS011;20121;51.910;8.406;2023-10-31T05:01:07;4.87;;;2.60;;
33814;SDS011;20121;51.910;8.406;2023-10-31T05:03:34;4.30;;;2.42;;
33814;SDS011;20121;51.910;8.406;2023-10-31T05:05:59;7.00;;;4.67;;
33814;SDS011;20121;51.910;8.406;2023-10-31T05:08:25;4.50;;;3.33;;
33814;SDS011;20121;51.910;8.406;2023-10-31T05:10:50;11.87;;;5.40;;
33814;SDS011;20121;51.910;8.406;2023-10-31T05:13:16;5.87;;;4.23;;
33814;SDS011;20121;51.910;8.406;2023-10-31T05:15:41;5.27;;;3.33;;
33814;SDS011;20121;51.910;8.406;2023-10-31T05:18:07;4.00;;;2.80;;
33814;SDS011;20121;51.910;8.406;2023-10-31T05:20:33;6.17;;;3.10;;
33814;SDS011;20121;51.910;8.406;2023-10-31T05:22:58;4.90;;;2.77;;
33814;SDS011;20121;51.910;8.406;2023-10-31T05:25:24;4.18;;;2.45;;
33814;SDS011;20121;51.910;8.406;2023-10-31T05:27:50;5.43;;;3.10;;
33814;SDS011;20121;51.910;8.406;2023-10-31T05:30:17;5.13;;;3.03;;
33814;SDS011;20121;51.910;8.406;2023-10-31T05:32:43;4.33;;;2.83;;
33814;SDS011;20121;51.910;8.406;2023-10-31T05:35:09;8.27;;;3.80;;
33814;SDS011;20121;51.910;8.406;2023-10-31T05:37:35;5.10;;;3.03;;
33814;SDS011;20121;51.910;8.406;2023-10-31T05:40:01;8.50;;;4.53;;
33814;SDS011;20121;51.910;8.406;2023-10-31T05:42:27;6.63;;;4.03;;
33814;SDS011;20121;51.910;8.406;2023-10-31T05:44:52;11.00;;;4.63;;
33814;SDS011;20121;51.910;8.406;2023-10-31T05:47:19;7.88;;;4.18;;
33814;SDS011;20121;51.910;8.406;2023-10-31T05:49:45;10.60;;;5.73;;
33814;SDS011;20121;51.910;8.406;2023-10-31T05:52:11;10.40;;;4.47;;
33814;SDS011;20121;51.910;8.406;2023-10-31T05:54:37;5.03;;;3.10;;
33814;SDS011;20121;51.910;8.406;2023-10-31T05:57:02;13.90;;;5.57;;
33814;SDS011;20121;51.910;8.406;2023-10-31T05:59:28;5.57;;;4.05;;
33814;SDS011;20121;51.910;8.406;2023-10-31T06:01:54;4.97;;;3.13;;
33814;SDS011;20121;51.910;8.406;2023-10-31T06:04:20;26.17;;;4.60;;
33814;SDS011;20121;51.910;8.406;2023-10-31T06:06:45;9.10;;;4.57;;
33814;SDS011;20121;51.910;8.406;2023-10-31T06:09:11;12.30;;;6.23;;
33814;SDS011;20121;51.910;8.406;2023-10-31T06:11:42;5.63;;;4.55;;
33814;SDS011;20121;51.910;8.406;2023-10-31T06:14:09;6.47;;;3.88;;
33814;SDS011;20121;51.910;8.406;2023-10-31T06:16:39;9.57;;;5.15;;
33814;SDS011;20121;51.910;8.406;2023-10-31T06:19:06;6.97;;;3.95;;
33814;SDS011;20121;51.910;8.406;2023-10-31T06:21:32;6.57;;;4.30;;
33814;SDS011;20121;51.910;8.406;2023-10-31T06:23:58;9.13;;;6.60;;
33814;SDS011;20121;51.910;8.406;2023-10-31T06:26:24;9.20;;;5.32;;
33814;SDS011;20121;51.910;8.406;2023-10-31T06:28:49;6.67;;;4.27;;
33814;SDS011;20121;51.910;8.406;2023-10-31T06:31:15;5.60;;;4.07;;
33814;SDS011;20121;51.910;8.406;2023-10-31T06:33:41;8.17;;;3.93;;
33814;SDS011;20121;51.910;8.406;2023-10-31T06:36:07;8.23;;;3.37;;
33814;SDS011;20121;51.910;8.406;2023-10-31T06:38:33;5.78;;;3.70;;
33814;SDS011;20121;51.910;8.406;2023-10-31T06:40:59;7.27;;;4.40;;
33814;SDS011;20121;51.910;8.406;2023-10-31T06:43:24;6.90;;;3.53;;
33814;SDS011;20121;51.910;8.406;2023-10-31T06:45:50;7.20;;;4.97;;
33814;SDS011;20121;51.910;8.406;2023-10-31T06:48:16;4.50;;;3.10;;
33814;SDS011;20121;51.910;8.406;2023-10-31T06:50:42;3.90;;;3.30;;
33814;SDS011;20121;51.910;8.406;2023-10-31T06:53:07;6.50;;;3.40;;
33814;SDS011;20121;51.910;8.406;2023-10-31T06:55:33;5.50;;;3.30;;
33814;SDS011;20121;51.910;8.406;2023-10-31T06:57:59;5.28;;;3.92;;
33814;SDS011;20121;51.910;8.406;2023-10-31T07:00:25;6.10;;;3.97;;
33814;SDS011;20121;51.910;8.406;2023-10-31T07:02:50;5.30;;;3.63;;
33814;SDS011;20121;51.910;8.406;2023-10-31T07:05:16;6.10;;;4.72;;
33814;SDS011;20121;51.910;8.406;2023-10-31T07:07:45;5.40;;;3.53;;
33814;SDS011;20121;51.910;8.406;2023-10-31T07:10:13;5.13;;;3.08;;
33814;SDS011;20121;51.910;8.406;2023-10-31T07:12:39;4.05;;;2.97;;
33814;SDS011;20121;51.910;8.406;2023-10-31T07:15:05;6.33;;;2.97;;
33814;SDS011;20121;51.910;8.406;2023-10-31T07:17:31;8.75;;;4.00;;
33814;SDS011;20121;51.910;8.406;2023-10-31T07:19:57;5.57;;;3.28;;
33814;SDS011;20121;51.910;8.406;2023-10-31T07:22:23;2.40;;;2.00;;
33814;SDS011;20121;51.910;8.406;2023-10-31T07:24:52;3.15;;;2.42;;
33814;SDS011;20121;51.910;8.406;2023-10-31T07:27:18;3.78;;;3.17;;
33814;SDS011;20121;51.910;8.406;2023-10-31T07:29:44;3.85;;;3.00;;
33814;SDS011;20121;51.910;8.406;2023-10-31T07:32:11;3.08;;;2.20;;
33814;SDS011;20121;51.910;8.406;2023-10-31T07:34:39;3.70;;;2.37;;
33814;SDS011;20121;51.910;8.406;2023-10-31T07:37:06;7.45;;;3.55;;
33814;SDS011;20121;51.910;8.406;2023-10-31T07:39:32;4.28;;;2.03;;
33814;SDS011;20121;51.910;8.406;2023-10-31T07:41:57;3.87;;;2.40;;
33814;SDS011;20121;51.910;8.406;2023-10-31T07:44:23;4.50;;;2.13;;
33814;SDS011;20121;51.910;8.406;2023-10-31T07:46:48;4.63;;;1.63;;
33814;SDS011;20121;51.910;8.406;2023-10-31T07:49:14;2.50;;;1.88;;
33814;SDS011;20121;51.910;8.406;2023-10-31T07:51:40;2.57;;;1.63;;
33814;SDS011;20121;51.910;8.406;2023-10-31T07:54:05;3.20;;;2.03;;
33814;SDS011;20121;51.910;8.406;2023-10-31T07:56:31;3.30;;;2.10;;
33814;SDS011;20121;51.910;8.406;2023-10-31T07:58:58;2.60;;;1.70;;
33814;SDS011;20121;51.910;8.406;2023-10-31T08:01:23;3.13;;;1.80;;
33814;SDS011;20121;51.910;8.406;2023-10-31T08:03:49;2.80;;;2.00;;
33814;SDS011;20121;51.910;8.406;2023-10-31T08:06:14;2.63;;;1.67;;
33814;SDS011;20121;51.910;8.406;2023-10-31T08:08:40;1.70;;;1.20;;
33814;SDS011;20121;51.910;8.406;2023-10-31T08:11:09;3.10;;;2.07;;
33814;SDS011;20121;51.910;8.406;2023-10-31T08:13:36;2.50;;;2.00;;
33814;SDS011;20121;51.910;8.406;2023-10-31T08:16:02;3.22;;;2.63;;
33814;SDS011;20121;51.910;8.406;2023-10-31T08:18:29;3.67;;;2.42;;
33814;SDS011;20121;51.910;8.406;2023-10-31T08:20:55;5.37;;;3.93;;
33814;SDS011;20121;51.910;8.406;2023-10-31T08:23:20;2.03;;;1.33;;
33814;SDS011;20121;51.910;8.406;2023-10-31T08:25:46;6.83;;;3.37;;
33814;SDS011;20121;51.910;8.406;2023-10-31T08:28:11;3.27;;;2.23;;
33814;SDS011;20121;51.910;8.406;2023-10-31T08:30:37;4.60;;;3.07;;
33814;SDS011;20121;51.910;8.406;2023-10-31T08:33:06;4.13;;;3.17;;
33814;SDS011;20121;51.910;8.406;2023-10-31T08:35:31;4.70;;;2.10;;
33814;SDS011;20121;51.910;8.406;2023-10-31T08:37:57;4.15;;;2.90;;
33814;SDS011;20121;51.910;8.406;2023-10-31T08:40:23;5.13;;;3.13;;
33814;SDS011;20121;51.910;8.406;2023-10-31T08:42:49;3.27;;;1.80;;
33814;SDS011;20121;51.910;8.406;2023-10-31T08:45:15;2.33;;;1.70;;
33814;SDS011;20121;51.910;8.406;2023-10-31T08:47:40;4.63;;;2.73;;
33814;SDS011;20121;51.910;8.406;2023-10-31T08:50:06;3.20;;;2.13;;
33814;SDS011;20121;51.910;8.406;2023-10-31T08:52:36;4.47;;;2.50;;
33814;SDS011;20121;51.910;8.406;2023-10-31T08:55:02;6.03;;;3.15;;
33814;SDS011;20121;51.910;8.406;2023-10-31T08:57:28;3.55;;;1.92;;
33814;SDS011;20121;51.910;8.406;2023-10-31T08:59:54;4.40;;;2.50;;
33814;SDS011;20121;51.910;8.406;2023-10-31T09:02:20;3.07;;;2.03;;
33814;SDS011;20121;51.910;8.406;2023-10-31T09:04:45;5.47;;;2.40;;
33814;SDS011;20121;51.910;8.406;2023-10-31T09:07:11;6.00;;;2.37;;
33814;SDS011;20121;51.910;8.406;2023-10-31T09:09:36;3.93;;;2.60;;
33814;SDS011;20121;51.910;8.406;2023-10-31T09:12:02;5.47;;;3.30;;
33814;SDS011;20121;51.910;8.406;2023-10-31T09:14:28;4.18;;;2.67;;
33814;SDS011;20121;51.910;8.406;2023-10-31T09:16:54;2.70;;;1.93;;
33814;SDS011;20121;51.910;8.406;2023-10-31T09:19:20;3.80;;;2.20;;
33814;SDS011;20121;51.910;8.406;2023-10-31T09:21:45;6.60;;;3.83;;
33814;SDS011;20121;51.910;8.406;2023-10-31T09:24:11;6.30;;;3.10;;
33814;SDS011;20121;51.910;8.406;2023-10-31T09:26:36;7.90;;;3.50;;
33814;SDS011;20121;51.910;8.406;2023-10-31T09:29:02;4.33;;;3.27;;
33814;SDS011;20121;51.910;8.406;2023-10-31T09:31:28;5.20;;;3.13;;
33814;SDS011;20121;51.910;8.406;2023-10-31T09:33:54;8.83;;;4.17;;
33814;SDS011;20121;51.910;8.406;2023-10-31T09:36:19;6.67;;;3.27;;
33814;SDS011;20121;51.910;8.406;2023-10-31T09:38:46;5.00;;;3.65;;
33814;SDS011;20121;51.910;8.406;2023-10-31T09:41:14;6.83;;;4.03;;
33814;SDS011;20121;51.910;8.406;2023-10-31T09:43:40;6.38;;;3.60;;
33814;SDS011;20121;51.910;8.406;2023-10-31T09:46:07;6.03;;;3.63;;
33814;SDS011;20121;51.910;8.406;2023-10-31T09:48:34;8.38;;;4.82;;
33814;SDS011;20121;51.910;8.406;2023-10-31T09:51:00;7.47;;;4.50;;
33814;SDS011;20121;51.910;8.406;2023-10-31T09:53:27;8.93;;;4.55;;
33814;SDS011;20121;51.910;8.406;2023-10-31T09:55:56;4.90;;;3.92;;
33814;SDS011;20121;51.910;8.406;2023-10-31T09:58:22;3.85;;;2.65;;
33814;SDS011;20121;51.910;8.406;2023-10-31T10:00:48;10.13;;;5.97;;
33814;SDS011;20121;51.910;8.406;2023-10-31T10:03:13;7.60;;;5.10;;
33814;SDS011;20121;51.910;8.406;2023-10-31T10:05:40;6.72;;;3.08;;
33814;SDS011;20121;51.910;8.406;2023-10-31T10:08:09;7.30;;;4.00;;
33814;SDS011;20121;51.910;8.406;2023-10-31T10:10:35;3.78;;;2.33;;
33814;SDS011;20121;51.910;8.406;2023-10-31T10:13:02;7.53;;;4.67;;
33814;SDS011;20121;51.910;8.406;2023-10-31T10:15:28;7.03;;;3.60;;
33814;SDS011;20121;51.910;8.406;2023-10-31T10:17:54;7.00;;;3.30;;
33814;SDS011;20121;51.910;8.406;2023-10-31T10:20:19;6.07;;;2.90;;
33814;SDS011;20121;51.910;8.406;2023-10-31T10:22:45;5.30;;;3.17;;
33814;SDS011;20121;51.910;8.406;2023-10-31T10:25:15;7.78;;;4.28;;
33814;SDS011;20121;51.910;8.406;2023-10-31T10:27:42;6.45;;;3.58;;
33814;SDS011;20121;51.910;8.406;2023-10-31T10:30:08;4.65;;;3.28;;
33814;SDS011;20121;51.910;8.406;2023-10-31T10:32:34;5.15;;;3.40;;
33814;SDS011;20121;51.910;8.406;2023-10-31T10:35:00;3.63;;;2.37;;
33814;SDS011;20121;51.910;8.406;2023-10-31T10:37:29;6.53;;;3.70;;
33814;SDS011;20121;51.910;8.406;2023-10-31T10:39:55;6.35;;;3.58;;
33814;SDS011;20121;51.910;8.406;2023-10-31T10:42:44;4.00;;;2.30;;
33814;SDS011;20121;51.910;8.406;2023-10-31T10:45:12;5.28;;;4.07;;
33814;SDS011;20121;51.910;8.406;2023-10-31T10:47:39;6.55;;;4.38;;
33814;SDS011;20121;51.910;8.406;2023-10-31T10:50:06;6.80;;;4.35;;
33814;SDS011;20121;51.910;8.406;2023-10-31T10:52:38;6.53;;;3.45;;
33814;SDS011;20121;51.910;8.406;2023-10-31T11:00:26;6.85;;;3.17;;
33814;SDS011;20121;51.910;8.406;2023-10-31T11:02:52;3.00;;;2.35;;
33814;SDS011;20121;51.910;8.406;2023-10-31T11:05:18;4.57;;;3.33;;
33814;SDS011;20121;51.910;8.406;2023-10-31T11:07:44;8.70;;;4.80;;
33814;SDS011;20121;51.910;8.406;2023-10-31T11:10:11;8.40;;;4.22;;
33814;SDS011;20121;51.910;8.406;2023-10-31T11:12:37;4.20;;;2.93;;
33814;SDS011;20121;51.910;8.406;2023-10-31T11:15:06;8.57;;;5.28;;
33814;SDS011;20121;51.910;8.406;2023-10-31T11:17:35;5.63;;;3.22;;
33814;SDS011;20121;51.910;8.406;2023-10-31T11:20:04;5.30;;;2.97;;
33814;SDS011;20121;51.910;8.406;2023-10-31T11:22:42;5.93;;;3.78;;
33814;SDS011;20121;51.910;8.406;2023-10-31T11:25:10;5.93;;;3.72;;
33814;SDS011;20121;51.910;8.406;2023-10-31T11:27:45;6.07;;;3.78;;
33814;SDS011;20121;51.910;8.406;2023-10-31T11:30:20;7.07;;;5.37;;
33814;SDS011;20121;51.910;8.406;2023-10-31T11:32:54;13.82;;;7.03;;
33814;SDS011;20121;51.910;8.406;2023-10-31T11:35:30;7.35;;;5.20;;
33814;SDS011;20121;51.910;8.406;2023-10-31T11:38:16;6.38;;;4.43;;
33814;SDS011;20121;51.910;8.406;2023-10-31T11:41:02;11.23;;;5.40;;
33814;SDS011;20121;51.910;8.406;2023-10-31T11:46:06;6.95;;;4.38;;
33814;SDS011;20121;51.910;8.406;2023-10-31T11:48:50;6.15;;;4.63;;
33814;SDS011;20121;51.910;8.406;2023-10-31T11:51:17;6.00;;;4.00;;
33814;SDS011;20121;51.910;8.406;2023-10-31T11:53:43;9.02;;;5.28;;
33814;SDS011;20121;51.910;8.406;2023-10-31T11:56:10;11.93;;;6.30;;
33814;SDS011;20121;51.910;8.406;2023-10-31T11:58:36;7.63;;;4.60;;
33814;SDS011;20121;51.910;8.406;2023-10-31T12:01:03;16.37;;;5.47;;
33814;SDS011;20121;51.910;8.406;2023-10-31T12:03:43;9.43;;;5.03;;
33814;SDS011;20121;51.910;8.406;2023-10-31T12:06:13;14.15;;;6.22;;
33814;SDS011;20121;51.910;8.406;2023-10-31T12:08:40;6.90;;;5.10;;
33814;SDS011;20121;51.910;8.406;2023-10-31T12:13:33;9.50;;;5.80;;
33814;SDS011;20121;51.910;8.406;2023-10-31T12:15:59;4.70;;;4.18;;
33814;SDS011;20121;51.910;8.406;2023-10-31T12:18:26;7.45;;;5.30;;
33814;SDS011;20121;51.910;8.406;2023-10-31T12:20:53;11.18;;;6.20;;
33814;SDS011;20121;51.910;8.406;2023-10-31T12:23:18;6.73;;;4.50;;
33814;SDS011;20121;51.910;8.406;2023-10-31T12:25:47;5.37;;;3.40;;
33814;SDS011;20121;51.910;8.406;2023-10-31T12:28:32;6.20;;;5.38;;
33814;SDS011;20121;51.910;8.406;2023-10-31T12:30:57;8.68;;;5.63;;
33814;SDS011;20121;51.910;8.406;2023-10-31T12:33:26;6.33;;;4.80;;
33814;SDS011;20121;51.910;8.406;2023-10-31T12:35:56;4.93;;;3.75;;
33814;SDS011;20121;51.910;8.406;2023-10-31T12:38:25;7.38;;;4.72;;
33814;SDS011;20121;51.910;8.406;2023-10-31T12:40:51;10.77;;;6.43;;
33814;SDS011;20121;51.910;8.406;2023-10-31T12:43:18;7.97;;;5.25;;
33814;SDS011;20121;51.910;8.406;2023-10-31T12:45:44;5.23;;;3.73;;
33814;SDS011;20121;51.910;8.406;2023-10-31T12:48:10;7.03;;;4.73;;
33814;SDS011;20121;51.910;8.406;2023-10-31T12:50:37;4.20;;;3.03;;
33814;SDS011;20121;51.910;8.406;2023-10-31T12:53:05;8.60;;;4.20;;
33814;SDS011;20121;51.910;8.406;2023-10-31T12:55:37;6.97;;;4.43;;
33814;SDS011;20121;51.910;8.406;2023-10-31T12:58:04;5.25;;;4.28;;
33814;SDS011;20121;51.910;8.406;2023-10-31T13:00:33;5.28;;;3.55;;
33814;SDS011;20121;51.910;8.406;2023-10-31T13:03:03;10.05;;;5.75;;
33814;SDS011;20121;51.910;8.406;2023-10-31T13:05:31;8.43;;;3.97;;
33814;SDS011;20121;51.910;8.406;2023-10-31T13:07:58;5.93;;;4.50;;
33814;SDS011;20121;51.910;8.406;2023-10-31T13:10:25;7.53;;;5.05;;
33814;SDS011;20121;51.910;8.406;2023-10-31T13:12:52;8.80;;;5.70;;
33814;SDS011;20121;51.910;8.406;2023-10-31T13:15:19;8.43;;;5.15;;
33814;SDS011;20121;51.910;8.406;2023-10-31T13:17:47;9.77;;;6.35;;
33814;SDS011;20121;51.910;8.406;2023-10-31T13:20:14;8.07;;;5.18;;
33814;SDS011;20121;51.910;8.406;2023-10-31T13:22:41;4.68;;;3.40;;
33814;SDS011;20121;51.910;8.406;2023-10-31T13:25:08;7.07;;;5.97;;
33814;SDS011;20121;51.910;8.406;2023-10-31T13:27:45;10.63;;;5.38;;
33814;SDS011;20121;51.910;8.406;2023-10-31T13:30:16;7.72;;;4.82;;
33814;SDS011;20121;51.910;8.406;2023-10-31T13:32:42;6.43;;;3.20;;
33814;SDS011;20121;51.910;8.406;2023-10-31T13:35:08;5.57;;;3.90;;
33814;SDS011;20121;51.910;8.406;2023-10-31T13:37:34;6.33;;;4.63;;
33814;SDS011;20121;51.910;8.406;2023-10-31T13:40:00;28.00;;;7.97;;
33814;SDS011;20121;51.910;8.406;2023-10-31T13:42:27;8.52;;;5.40;;
33814;SDS011;20121;51.910;8.406;2023-10-31T13:44:53;11.35;;;5.70;;
33814;SDS011;20121;51.910;8.406;2023-10-31T13:47:19;9.43;;;6.07;;
33814;SDS011;20121;51.910;8.406;2023-10-31T13:49:45;6.70;;;5.35;;
33814;SDS011;20121;51.910;8.406;2023-10-31T13:52:11;10.55;;;6.03;;
33814;SDS011;20121;51.910;8.406;2023-10-31T13:54:37;15.37;;;5.57;;
33814;SDS011;20121;51.910;8.406;2023-10-31T13:57:02;7.40;;;4.40;;
33814;SDS011;20121;51.910;8.406;2023-10-31T13:59:28;7.35;;;5.05;;
33814;SDS011;20121;51.910;8.406;2023-10-31T14:01:54;7.03;;;4.27;;
33814;SDS011;20121;51.910;8.406;2023-10-31T14:04:20;6.23;;;4.90;;
33814;SDS011;20121;51.910;8.406;2023-10-31T14:06:46;8.63;;;4.55;;
33814;SDS011;20121;51.910;8.406;2023-10-31T14:09:12;8.53;;;4.40;;
33814;SDS011;20121;51.910;8.406;2023-10-31T14:11:41;8.33;;;5.10;;
33814;SDS011;20121;51.910;8.406;2023-10-31T14:14:07;6.53;;;4.38;;
33814;SDS011;20121;51.910;8.406;2023-10-31T14:16:38;7.45;;;4.70;;
33814;SDS011;20121;51.910;8.406;2023-10-31T14:19:04;6.30;;;5.15;;
33814;SDS011;20121;51.910;8.406;2023-10-31T14:21:31;8.07;;;4.75;;
33814;SDS011;20121;51.910;8.406;2023-10-31T14:23:57;6.95;;;3.95;;
33814;SDS011;20121;51.910;8.406;2023-10-31T14:26:23;5.70;;;3.63;;
33814;SDS011;20121;51.910;8.406;2023-10-31T14:28:49;8.82;;;4.38;;
33814;SDS011;20121;51.910;8.406;2023-10-31T14:31:15;7.35;;;4.97;;
33814;SDS011;20121;51.910;8.406;2023-10-31T14:33:41;11.70;;;6.53;;
33814;SDS011;20121;51.910;8.406;2023-10-31T14:36:08;4.78;;;3.90;;
33814;SDS011;20121;51.910;8.406;2023-10-31T14:38:36;6.10;;;3.72;;
33814;SDS011;20121;51.910;8.406;2023-10-31T14:41:02;6.85;;;4.75;;
33814;SDS011;20121;51.910;8.406;2023-10-31T14:43:28;9.43;;;6.60;;
33814;SDS011;20121;51.910;8.406;2023-10-31T14:45:55;5.32;;;4.38;;
33814;SDS011;20121;51.910;8.406;2023-10-31T14:48:21;8.80;;;4.85;;
33814;SDS011;20121;51.910;8.406;2023-10-31T14:50:47;5.50;;;4.17;;
33814;SDS011;20121;51.910;8.406;2023-10-31T14:53:13;5.95;;;3.70;;
33814;SDS011;20121;51.910;8.406;2023-10-31T14:55:40;4.47;;;3.45;;